Norwood, Illinois
Current Conditions -  °F | °C
As of 3:54 AM on Friday 24 Oct 2014 (Local Time) from KPIA Reporting Station
Clear Clear  
Wind Chill: 52°   Ceiling: Unl
Heat Index: 52°   Visibility: 10mi
Dew Point: 45°   Wind: 3mph
Humidity: 77%   Direction: 200°SSW
Pressure: 30.06"   Gusts: NA
Location:  40.7064°N, 89.6585°W
Report Text: KPIA 240854Z 20003KT 10SM CLR 11/07 A3006 RMK AO2 SLP178 T01110072 58001
Loading
Personal Weather Stations






























Interactive Weather Map
Tropical Storm Tracking
New forecast layout! Learn more

10-Day Weather Forecast

Advertisements
Track Severe Weather on mobile